createdAt,value
2018-12-31T00:00:50.600Z,41.73
2018-12-31T00:03:19.578Z,41.60
2018-12-31T00:05:48.035Z,41.17
2018-12-31T00:08:17.152Z,41.10
2018-12-31T00:10:45.836Z,42.97
2018-12-31T00:13:14.670Z,42.40
2018-12-31T00:15:43.446Z,40.80
2018-12-31T00:18:22.813Z,42.87
2018-12-31T00:20:51.152Z,42.10
2018-12-31T00:23:19.533Z,43.60
2018-12-31T00:25:48.198Z,43.93
2018-12-31T00:28:16.591Z,42.87
2018-12-31T00:30:45.362Z,43.33
2018-12-31T00:33:13.814Z,43.53
2018-12-31T00:35:43.759Z,43.87
2018-12-31T00:38:12.161Z,44.20
2018-12-31T00:40:40.698Z,44.03
2018-12-31T00:43:09.386Z,43.27
2018-12-31T00:45:38.106Z,46.80
2018-12-31T00:48:06.781Z,42.90
2018-12-31T00:50:35.695Z,42.60
2018-12-31T00:53:04.096Z,44.30
2018-12-31T00:55:32.613Z,43.30
2018-12-31T00:58:01.006Z,44.00
2018-12-31T01:00:30.006Z,41.63
2018-12-31T01:02:58.474Z,42.43
2018-12-31T01:05:26.875Z,41.57
2018-12-31T01:07:55.369Z,39.57
2018-12-31T01:10:23.774Z,42.00
2018-12-31T01:12:52.172Z,38.07
2018-12-31T01:15:20.559Z,38.60
2018-12-31T01:17:49.102Z,37.80
2018-12-31T01:20:18.068Z,39.57
2018-12-31T01:22:46.756Z,38.63
2018-12-31T01:25:15.247Z,38.80
2018-12-31T01:27:43.644Z,41.33
2018-12-31T01:30:12.039Z,38.10
2018-12-31T01:32:40.425Z,39.07
2018-12-31T01:35:09.164Z,36.20
2018-12-31T01:37:37.555Z,35.83
2018-12-31T01:40:06.980Z,35.17
2018-12-31T01:42:35.394Z,36.30
2018-12-31T01:45:04.307Z,33.93
2018-12-31T01:47:32.702Z,35.43
2018-12-31T01:50:01.095Z,33.90
2018-12-31T01:52:29.747Z,33.53
2018-12-31T01:54:58.143Z,34.40
2018-12-31T01:57:26.530Z,32.57
2018-12-31T01:59:54.924Z,32.80
2018-12-31T02:02:23.323Z,34.20
2018-12-31T02:04:52.160Z,32.30
2018-12-31T02:07:20.844Z,33.00
2018-12-31T02:09:49.240Z,32.60
2018-12-31T02:12:17.630Z,33.90
2018-12-31T02:14:46.286Z,36.90
2018-12-31T02:17:14.976Z,35.90
2018-12-31T02:19:43.371Z,35.00
2018-12-31T02:22:12.550Z,35.17
2018-12-31T02:24:41.240Z,35.13
2018-12-31T02:27:09.640Z,34.00
2018-12-31T02:29:38.027Z,35.17
2018-12-31T02:32:06.683Z,33.77
2018-12-31T02:34:35.090Z,35.70
2018-12-31T02:37:03.654Z,35.10
2018-12-31T02:39:32.038Z,34.73
2018-12-31T02:42:00.423Z,35.63
2018-12-31T02:44:28.819Z,35.40
2018-12-31T02:46:57.570Z,35.70
2018-12-31T02:49:26.261Z,35.70
2018-12-31T02:51:54.945Z,35.33
2018-12-31T02:54:23.358Z,35.27
2018-12-31T02:56:51.740Z,34.47
2018-12-31T02:59:20.388Z,34.97
2018-12-31T03:15:43.423Z,35.70
2018-12-31T03:18:11.810Z,34.43
2018-12-31T03:20:40.193Z,34.17
2018-12-31T03:23:08.722Z,32.03
2018-12-31T03:25:37.359Z,31.47
2018-12-31T03:28:06.057Z,33.23
2018-12-31T03:30:34.448Z,34.23
2018-12-31T03:33:02.835Z,34.30
2018-12-31T03:35:31.227Z,32.70
2018-12-31T03:38:00.119Z,33.03
2018-12-31T03:40:28.866Z,35.27
2018-12-31T03:42:57.271Z,33.90
2018-12-31T03:45:25.657Z,35.80
2018-12-31T03:47:54.318Z,35.03
2018-12-31T03:50:22.716Z,37.27
2018-12-31T03:52:51.122Z,34.43
2018-12-31T03:55:19.965Z,35.00
2018-12-31T03:57:48.645Z,34.80
2018-12-31T04:00:17.333Z,33.83
2018-12-31T04:02:46.997Z,33.93
2018-12-31T04:05:15.882Z,34.27
2018-12-31T04:07:52.784Z,36.93
2018-12-31T04:10:14.750Z,35.17
2018-12-31T04:12:43.145Z,34.90
2018-12-31T04:15:11.539Z,35.17
2018-12-31T04:17:39.925Z,33.30
2018-12-31T04:20:08.313Z,35.20
2018-12-31T04:22:37.150Z,34.87
2018-12-31T04:25:05.540Z,34.23
2018-12-31T04:27:33.938Z,34.17
2018-12-31T04:30:02.337Z,36.13
2018-12-31T04:32:31.067Z,35.80
2018-12-31T04:34:59.448Z,36.30
2018-12-31T04:37:27.848Z,34.20
2018-12-31T04:39:56.298Z,35.60
2018-12-31T04:42:25.028Z,34.90
2018-12-31T04:44:54.090Z,36.10
2018-12-31T04:47:23.998Z,35.87
2018-12-31T04:49:52.695Z,36.60
2018-12-31T04:52:21.089Z,34.27
2018-12-31T04:54:49.519Z,35.93
2018-12-31T04:57:18.067Z,35.37
2018-12-31T04:59:46.419Z,37.47
2018-12-31T05:02:14.800Z,35.17
2018-12-31T05:04:43.582Z,36.03
2018-12-31T05:07:12.192Z,34.60
2018-12-31T05:09:40.598Z,34.23
2018-12-31T05:12:08.996Z,36.27
2018-12-31T05:14:37.709Z,37.07
2018-12-31T05:17:06.599Z,37.70
2018-12-31T05:19:35.284Z,36.87
2018-12-31T05:22:03.974Z,36.17
2018-12-31T05:24:32.361Z,38.10
2018-12-31T05:27:00.745Z,36.93
2018-12-31T05:29:29.140Z,38.67
2018-12-31T05:31:57.528Z,36.70
2018-12-31T05:34:25.914Z,39.27
2018-12-31T05:36:54.309Z,38.37
2018-12-31T05:39:22.714Z,39.23
2018-12-31T05:41:51.095Z,37.83
2018-12-31T05:44:19.497Z,40.27
2018-12-31T05:46:47.956Z,37.70
2018-12-31T05:49:16.663Z,37.43
2018-12-31T05:51:45.058Z,37.57
2018-12-31T05:54:13.687Z,40.37
2018-12-31T05:56:42.505Z,41.80
2018-12-31T05:59:11.188Z,43.80
2018-12-31T06:01:39.576Z,43.10
2018-12-31T06:04:08.674Z,47.30
2018-12-31T06:06:37.451Z,49.87
2018-12-31T06:09:07.480Z,45.50
2018-12-31T06:11:35.884Z,49.17
2018-12-31T06:14:04.340Z,48.20
2018-12-31T06:16:32.731Z,47.73
2018-12-31T06:19:01.330Z,53.20
2018-12-31T06:21:29.979Z,50.53
2018-12-31T06:23:59.098Z,52.47
2018-12-31T06:26:27.484Z,48.80
2018-12-31T06:28:55.875Z,46.90
2018-12-31T06:31:24.269Z,51.70
2018-12-31T06:33:52.657Z,57.47
2018-12-31T06:36:21.299Z,51.70
2018-12-31T06:38:49.696Z,49.97
2018-12-31T06:41:18.074Z,47.50
2018-12-31T06:43:46.471Z,96.80
2018-12-31T06:46:14.870Z,60.03
2018-12-31T06:48:43.256Z,59.23
2018-12-31T06:51:11.660Z,77.27
2018-12-31T06:53:40.224Z,107.53
2018-12-31T06:56:08.617Z,76.53
2018-12-31T06:58:37.417Z,64.87
2018-12-31T07:01:05.806Z,115.53
2018-12-31T07:03:34.373Z,81.37
2018-12-31T07:06:02.851Z,63.20
2018-12-31T07:08:31.243Z,95.77
2018-12-31T07:10:59.638Z,79.90
2018-12-31T07:13:29.464Z,68.00
2018-12-31T07:15:58.116Z,84.63
2018-12-31T07:18:26.519Z,56.87
2018-12-31T07:20:55.174Z,65.20
2018-12-31T07:23:23.865Z,71.50
2018-12-31T07:25:52.564Z,69.27
2018-12-31T07:28:21.230Z,85.57
2018-12-31T07:30:49.911Z,68.10
2018-12-31T07:33:18.601Z,73.13
2018-12-31T07:35:47.006Z,63.33
2018-12-31T07:38:15.383Z,65.70
2018-12-31T07:40:43.784Z,61.30
2018-12-31T07:43:12.171Z,64.10
2018-12-31T07:45:41.213Z,60.27
2018-12-31T07:48:10.048Z,56.37
2018-12-31T07:50:38.432Z,57.70
2018-12-31T07:53:06.816Z,50.00
2018-12-31T07:55:35.575Z,54.40
2018-12-31T07:58:04.234Z,46.83
2018-12-31T08:00:32.621Z,55.97
2018-12-31T08:03:01.239Z,54.90
2018-12-31T08:05:29.889Z,59.33
2018-12-31T08:07:58.570Z,56.87
2018-12-31T08:10:27.265Z,56.20
2018-12-31T08:12:55.665Z,58.40
2018-12-31T08:15:24.396Z,64.20
2018-12-31T08:17:52.919Z,61.37
2018-12-31T08:20:21.607Z,60.77
2018-12-31T08:22:50.013Z,59.37
2018-12-31T08:25:18.762Z,62.40
2018-12-31T08:27:47.445Z,68.60
2018-12-31T08:30:16.345Z,56.43
2018-12-31T08:32:44.746Z,63.03
2018-12-31T08:35:13.365Z,62.50
2018-12-31T08:37:41.748Z,59.50
2018-12-31T08:40:10.138Z,62.67
2018-12-31T08:42:38.564Z,66.63
2018-12-31T08:45:07.244Z,61.47
2018-12-31T08:47:35.908Z,73.13
2018-12-31T08:50:06.180Z,64.93
2018-12-31T08:52:34.567Z,69.37
2018-12-31T08:55:03.211Z,77.50
2018-12-31T08:57:32.299Z,67.80
2018-12-31T09:00:00.982Z,64.00
2018-12-31T09:02:29.365Z,76.53
2018-12-31T09:04:58.357Z,63.67
2018-12-31T09:07:26.746Z,72.00
2018-12-31T09:09:55.140Z,68.37
2018-12-31T09:12:23.526Z,61.87
2018-12-31T09:14:52.307Z,65.57
2018-12-31T09:17:20.694Z,63.57
2018-12-31T09:19:49.277Z,61.47
2018-12-31T09:22:17.684Z,70.03
2018-12-31T09:24:46.416Z,72.63
2018-12-31T09:27:14.947Z,64.30
2018-12-31T09:29:48.701Z,67.40
2018-12-31T09:32:17.397Z,68.17
2018-12-31T09:34:45.979Z,67.00
2018-12-31T09:37:14.365Z,66.57
2018-12-31T09:39:42.750Z,69.87
2018-12-31T09:42:11.166Z,67.73
2018-12-31T09:44:39.563Z,67.23
2018-12-31T09:47:07.949Z,73.47
2018-12-31T09:49:36.538Z,78.23
2018-12-31T09:52:04.926Z,67.37
2018-12-31T09:54:34.333Z,70.20
2018-12-31T09:57:02.717Z,73.00
2018-12-31T09:59:31.549Z,70.27
2018-12-31T10:02:08.028Z,73.33
2018-12-31T10:04:38.132Z,66.97
2018-12-31T10:07:06.789Z,68.10
2018-12-31T10:09:35.184Z,69.93
2018-12-31T10:12:03.570Z,68.10
2018-12-31T10:14:31.974Z,70.60
2018-12-31T10:17:00.368Z,67.60
2018-12-31T10:19:28.757Z,64.17
2018-12-31T10:21:57.158Z,70.60
2018-12-31T10:24:25.548Z,71.00
2018-12-31T10:26:53.944Z,67.07
2018-12-31T10:29:22.333Z,70.60
2018-12-31T10:31:50.956Z,63.10
2018-12-31T10:34:19.352Z,64.47
2018-12-31T10:36:47.775Z,72.20
2018-12-31T10:39:16.462Z,68.93
2018-12-31T10:41:44.851Z,72.50
2018-12-31T10:44:13.601Z,69.87
2018-12-31T10:46:42.070Z,71.33
2018-12-31T10:49:10.749Z,64.97
2018-12-31T10:51:39.707Z,62.77
2018-12-31T10:54:08.092Z,73.70
2018-12-31T10:56:36.548Z,70.73
2018-12-31T10:59:05.007Z,69.43
2018-12-31T11:01:33.396Z,71.83
2018-12-31T11:04:02.079Z,66.93
2018-12-31T11:06:30.545Z,59.87
2018-12-31T11:08:58.941Z,78.07
2018-12-31T11:11:27.322Z,72.93
2018-12-31T11:13:56.023Z,71.57
2018-12-31T11:16:24.460Z,85.87
2018-12-31T11:18:52.865Z,70.80
2018-12-31T11:21:21.270Z,74.13
2018-12-31T11:23:49.835Z,76.33
2018-12-31T11:26:18.617Z,85.50
2018-12-31T11:28:47.021Z,70.50
2018-12-31T11:31:15.467Z,83.70
2018-12-31T11:33:44.184Z,73.87
2018-12-31T11:36:12.940Z,70.17
2018-12-31T11:38:41.657Z,76.33
2018-12-31T11:41:10.063Z,63.53
2018-12-31T11:43:38.452Z,70.83
2018-12-31T11:46:07.278Z,75.80
2018-12-31T11:48:35.654Z,64.87
2018-12-31T11:51:04.440Z,66.33
2018-12-31T11:53:32.824Z,67.17
2018-12-31T11:56:01.228Z,74.23
2018-12-31T11:58:29.617Z,63.57
2018-12-31T12:00:58.251Z,56.40
2018-12-31T12:03:26.636Z,72.17
2018-12-31T12:05:55.092Z,67.80
2018-12-31T12:08:23.486Z,57.23
2018-12-31T12:10:51.875Z,78.73
2018-12-31T12:13:21.055Z,63.97
2018-12-31T12:15:53.715Z,62.80
2018-12-31T12:22:03.249Z,61.90
2018-12-31T12:24:31.932Z,67.00
2018-12-31T12:27:01.027Z,59.57
2018-12-31T12:29:29.420Z,66.70
2018-12-31T12:31:58.238Z,63.33
2018-12-31T12:34:27.677Z,57.83
2018-12-31T12:36:56.054Z,53.43
2018-12-31T12:39:29.448Z,66.53
2018-12-31T12:41:58.322Z,63.47
2018-12-31T12:44:26.722Z,64.63
2018-12-31T12:46:55.200Z,65.67
2018-12-31T12:49:28.197Z,62.30
2018-12-31T12:51:56.595Z,57.73
2018-12-31T12:54:24.988Z,62.90
2018-12-31T12:57:04.736Z,60.77
2018-12-31T12:59:33.123Z,51.43
2018-12-31T13:02:02.073Z,69.63
2018-12-31T13:04:30.761Z,59.70
2018-12-31T13:06:59.152Z,64.20
2018-12-31T13:09:27.554Z,55.67
2018-12-31T13:11:55.943Z,59.90
2018-12-31T13:14:24.781Z,58.93
2018-12-31T13:16:53.169Z,58.03
2018-12-31T13:19:21.552Z,61.73
2018-12-31T13:21:50.354Z,62.70
2018-12-31T13:24:18.920Z,63.83
2018-12-31T13:26:47.743Z,54.40
2018-12-31T13:29:16.149Z,55.83
2018-12-31T13:31:44.535Z,53.37
2018-12-31T13:34:13.169Z,55.50
2018-12-31T13:36:41.574Z,62.80
2018-12-31T13:39:10.504Z,53.27
2018-12-31T13:41:38.891Z,49.20
2018-12-31T13:44:07.291Z,53.33
2018-12-31T13:46:35.780Z,48.33
2018-12-31T13:49:04.250Z,47.70
2018-12-31T13:51:32.755Z,49.13
2018-12-31T13:54:01.141Z,52.13
2018-12-31T13:56:30.329Z,55.40
2018-12-31T13:58:58.723Z,49.97
2018-12-31T14:01:27.486Z,51.80
2018-12-31T14:03:55.890Z,57.03
2018-12-31T14:06:24.297Z,49.97
2018-12-31T14:08:52.718Z,48.30
2018-12-31T14:11:21.099Z,59.77
2018-12-31T14:13:49.524Z,54.63
2018-12-31T14:16:17.906Z,53.10
2018-12-31T14:18:46.335Z,47.33
2018-12-31T14:21:14.742Z,59.33
2018-12-31T14:23:43.306Z,58.50
2018-12-31T14:26:11.810Z,58.27
2018-12-31T14:28:59.116Z,60.53
2018-12-31T14:35:19.704Z,65.20
2018-12-31T14:38:14.834Z,60.33
2018-12-31T14:41:08.880Z,54.20
2018-12-31T14:47:09.807Z,58.57
2018-12-31T14:50:18.571Z,64.67
2018-12-31T15:06:53.757Z,54.43
2018-12-31T15:09:22.812Z,57.33
2018-12-31T15:11:52.943Z,54.63
2018-12-31T15:14:22.707Z,53.30
2018-12-31T15:16:52.028Z,61.50
2018-12-31T15:19:20.888Z,64.53
2018-12-31T15:21:51.606Z,64.67
2018-12-31T15:24:20.064Z,69.53
2018-12-31T15:26:48.953Z,61.63
2018-12-31T15:29:18.141Z,55.60
2018-12-31T15:31:46.498Z,56.93
2018-12-31T15:34:15.035Z,65.70
2018-12-31T15:36:43.458Z,63.40
2018-12-31T15:39:12.181Z,68.87
2018-12-31T15:41:40.866Z,61.77
2018-12-31T15:44:09.270Z,64.57
2018-12-31T15:46:37.664Z,51.77
2018-12-31T15:49:06.075Z,57.63
2018-12-31T15:51:34.466Z,61.90
2018-12-31T15:54:02.879Z,58.83
2018-12-31T15:56:31.268Z,58.97
2018-12-31T15:58:59.844Z,53.93
2018-12-31T16:01:28.860Z,56.13
2018-12-31T16:03:57.253Z,58.30
2018-12-31T16:06:25.665Z,59.73
2018-12-31T16:08:54.368Z,55.63
2018-12-31T16:11:22.744Z,59.03
2018-12-31T16:13:51.829Z,50.17
2018-12-31T16:16:20.237Z,51.63
2018-12-31T16:18:48.643Z,54.13
2018-12-31T16:21:17.040Z,51.07
2018-12-31T16:23:45.554Z,57.23
2018-12-31T16:26:13.951Z,63.73
2018-12-31T16:28:42.978Z,63.77
2018-12-31T16:31:11.442Z,65.83
2018-12-31T16:33:39.858Z,56.50
2018-12-31T16:36:08.252Z,61.63
2018-12-31T16:38:38.123Z,70.30
2018-12-31T16:41:06.602Z,60.33
2018-12-31T16:43:34.998Z,51.87
2018-12-31T16:46:03.390Z,47.93
2018-12-31T16:48:36.423Z,52.20
2018-12-31T16:51:16.652Z,60.17
2018-12-31T16:53:45.462Z,48.10
2018-12-31T16:56:13.873Z,61.97
2018-12-31T16:58:42.330Z,49.73
2018-12-31T17:01:10.741Z,55.47
2018-12-31T17:03:39.127Z,46.30
2018-12-31T17:06:07.921Z,50.67
2018-12-31T17:08:36.333Z,61.03
2018-12-31T17:11:04.751Z,52.87
2018-12-31T17:13:33.148Z,49.80
2018-12-31T17:16:01.822Z,55.40
2018-12-31T17:18:30.223Z,42.63
2018-12-31T17:20:58.618Z,60.13
2018-12-31T17:23:27.446Z,60.37
2018-12-31T17:25:55.856Z,55.50
2018-12-31T17:28:24.251Z,61.30
2018-12-31T17:30:52.647Z,69.33
2018-12-31T17:33:21.061Z,63.40
2018-12-31T17:35:50.138Z,56.97
2018-12-31T17:38:18.960Z,52.87
2018-12-31T17:40:47.356Z,58.90
2018-12-31T17:43:15.783Z,61.23
2018-12-31T17:45:44.183Z,48.10
2018-12-31T17:48:12.568Z,55.83
2018-12-31T17:50:41.356Z,58.67
2018-12-31T17:53:09.760Z,54.53
2018-12-31T17:55:38.547Z,62.63
2018-12-31T17:58:06.938Z,58.10
2018-12-31T18:00:35.335Z,64.00
2018-12-31T18:03:03.744Z,58.60
2018-12-31T18:05:32.279Z,45.90
2018-12-31T18:08:00.680Z,64.30
2018-12-31T18:10:29.087Z,63.77
2018-12-31T18:12:57.485Z,62.20
2018-12-31T18:15:26.148Z,63.60
2018-12-31T18:17:54.859Z,69.00
2018-12-31T18:20:23.254Z,55.43
2018-12-31T18:22:51.670Z,64.17
2018-12-31T18:25:20.299Z,64.30
2018-12-31T18:27:48.762Z,67.43
2018-12-31T18:30:17.314Z,71.30
2018-12-31T18:32:45.702Z,64.73
2018-12-31T18:35:15.047Z,71.10
2018-12-31T18:37:43.465Z,61.10
2018-12-31T18:40:11.854Z,70.83
2018-12-31T18:42:40.263Z,67.40
2018-12-31T18:45:08.723Z,70.37
2018-12-31T18:47:38.075Z,76.57
2018-12-31T18:50:07.103Z,69.63
2018-12-31T18:52:35.847Z,109.67
2018-12-31T18:55:05.677Z,134.23
2018-12-31T18:57:34.452Z,74.27
2018-12-31T19:00:03.487Z,73.23
2018-12-31T19:02:31.880Z,76.93
2018-12-31T19:05:00.263Z,77.43
2018-12-31T19:07:29.406Z,82.57
2018-12-31T19:09:57.811Z,75.97
2018-12-31T19:12:26.197Z,77.77
2018-12-31T19:14:55.072Z,81.20
2018-12-31T19:17:23.462Z,78.27
2018-12-31T19:19:52.225Z,80.57
2018-12-31T19:22:20.685Z,78.47
2018-12-31T19:24:49.787Z,79.27
2018-12-31T19:27:18.181Z,87.00
2018-12-31T19:29:46.572Z,82.57
2018-12-31T19:32:14.973Z,79.57
2018-12-31T19:34:43.361Z,78.60
2018-12-31T19:37:11.775Z,79.17
2018-12-31T19:39:40.664Z,76.87
2018-12-31T19:42:09.081Z,74.20
2018-12-31T19:44:37.461Z,72.83
2018-12-31T19:47:05.927Z,73.87
2018-12-31T19:49:34.330Z,70.03
2018-12-31T19:52:02.720Z,75.93
2018-12-31T19:54:31.191Z,79.50
2018-12-31T19:56:59.580Z,80.30
2018-12-31T19:59:28.030Z,79.30
2018-12-31T20:01:56.847Z,81.43
2018-12-31T20:04:25.278Z,87.77
2018-12-31T20:07:01.073Z,73.40
2018-12-31T20:09:24.501Z,82.57
2018-12-31T20:11:52.909Z,85.07
2018-12-31T20:14:21.301Z,77.40
2018-12-31T20:16:49.688Z,83.57
2018-12-31T20:19:19.038Z,71.83
2018-12-31T20:21:47.433Z,79.73
2018-12-31T20:24:15.830Z,73.30
2018-12-31T20:26:44.410Z,71.27
2018-12-31T20:29:13.196Z,75.73
2018-12-31T20:31:41.586Z,68.90
2018-12-31T20:34:10.545Z,70.47
2018-12-31T20:36:39.256Z,77.00
2018-12-31T20:39:07.651Z,63.20
2018-12-31T20:41:36.031Z,66.10
2018-12-31T20:44:04.428Z,72.20
2018-12-31T20:46:32.819Z,60.40
2018-12-31T20:49:01.207Z,63.90
2018-12-31T20:51:29.606Z,62.17
2018-12-31T20:53:58.420Z,58.00
2018-12-31T20:56:26.798Z,62.77
2018-12-31T20:58:55.340Z,65.00
2018-12-31T21:01:24.311Z,67.43
2018-12-31T21:03:52.696Z,58.10
2018-12-31T21:06:21.081Z,63.17
2018-12-31T21:08:49.726Z,57.40
2018-12-31T21:11:18.113Z,64.70
2018-12-31T21:13:46.857Z,60.60
2018-12-31T21:16:15.263Z,62.93
2018-12-31T21:18:43.665Z,82.97
2018-12-31T21:21:12.058Z,90.20
2018-12-31T21:23:41.326Z,99.03
2018-12-31T21:26:09.922Z,106.53
2018-12-31T21:28:38.970Z,82.53
2018-12-31T21:31:07.362Z,84.73
2018-12-31T21:33:36.139Z,73.75
2018-12-31T21:36:04.532Z,62.43
2018-12-31T21:38:33.308Z,60.10
2018-12-31T21:41:01.694Z,68.23
2018-12-31T21:43:30.088Z,64.20
2018-12-31T21:45:58.781Z,61.17
2018-12-31T21:48:27.180Z,61.60
2018-12-31T21:50:55.555Z,59.60
2018-12-31T21:53:23.958Z,62.17
2018-12-31T21:55:52.914Z,58.53
2018-12-31T21:58:21.312Z,53.17
2018-12-31T22:00:50.060Z,55.33
2018-12-31T22:03:19.157Z,61.83
2018-12-31T22:05:47.554Z,76.90
2018-12-31T22:08:16.318Z,73.00
2018-12-31T22:10:44.719Z,65.80
2018-12-31T22:13:13.486Z,62.47
2018-12-31T22:15:43.196Z,56.80
2018-12-31T22:18:11.709Z,54.43
2018-12-31T22:20:40.098Z,56.43
2018-12-31T22:23:08.525Z,49.43
2018-12-31T22:25:37.340Z,56.50
2018-12-31T22:28:05.711Z,51.37
2018-12-31T22:30:34.221Z,55.70
2018-12-31T22:33:03.006Z,56.37
2018-12-31T22:35:31.876Z,62.53
2018-12-31T22:38:00.332Z,54.17
2018-12-31T22:40:29.056Z,62.47
2018-12-31T22:42:57.522Z,59.87
2018-12-31T22:45:25.920Z,57.17
2018-12-31T22:47:54.471Z,59.73
2018-12-31T22:50:23.164Z,60.27
2018-12-31T22:52:51.826Z,58.53
2018-12-31T22:55:20.254Z,65.13
2018-12-31T22:57:48.642Z,77.40
2018-12-31T23:00:17.199Z,69.20
2018-12-31T23:02:45.757Z,83.27
2018-12-31T23:05:14.685Z,313.17
2018-12-31T23:07:43.100Z,718.97
2018-12-31T23:10:12.031Z,556.73
2018-12-31T23:12:40.434Z,356.10
2018-12-31T23:15:12.283Z,478.17
2018-12-31T23:17:40.692Z,467.50
2018-12-31T23:20:11.632Z,445.97
2018-12-31T23:22:40.023Z,450.30
2018-12-31T23:25:08.916Z,428.40
2018-12-31T23:27:37.316Z,420.97
2018-12-31T23:30:09.110Z,450.70
2018-12-31T23:32:37.517Z,415.10
2018-12-31T23:35:07.852Z,310.60
2018-12-31T23:37:37.288Z,334.70
2018-12-31T23:40:08.519Z,371.63
2018-12-31T23:42:36.923Z,296.47
2018-12-31T23:45:08.753Z,243.97
2018-12-31T23:47:37.490Z,241.00
2018-12-31T23:50:09.192Z,202.47
2018-12-31T23:52:37.594Z,182.10
2018-12-31T23:55:07.849Z,154.30
2018-12-31T23:57:36.243Z,162.60
